Time;durP1;ratioP1;P1;durP2;ratioP2;P2;SDS_P1;SDS_P2;PMS_P1;PMS_P2;Temp;Humidity;BMP_temperature;BMP_pressure;BME280_temperature;BME280_humidity;BME280_pressure;Samples;Min_cycle;Max_cycle;Signal;HPM_P1;HPM_P2
2021/08/08 00:01:25;;;;;;;4.05;1.17;;;;;;;18.33;94.41;99451.66;5298072;28;20348;-78
2021/08/08 00:03:55;;;;;;;3.45;1.02;;;;;;;18.37;94.10;99461.00;5298308;28;20393;-79
2021/08/08 00:06:26;;;;;;;2.55;1.10;;;;;;;18.48;93.93;99458.28;5297677;27;20027;-78
2021/08/08 00:08:56;;;;;;;2.42;1.10;;;;;;;18.51;92.77;99461.47;5298189;27;20034;-79
2021/08/08 00:11:27;;;;;;;2.72;1.10;;;;;;;18.43;93.13;99463.09;5296865;27;20023;-78
2021/08/08 00:13:57;;;;;;;4.22;1.13;;;;;;;18.34;93.77;99456.78;5295537;28;20032;-79
2021/08/08 00:16:29;;;;;;;3.75;1.00;;;;;;;18.38;93.29;99450.25;5300448;27;20034;-78
2021/08/08 00:18:59;;;;;;;3.25;1.27;;;;;;;18.36;92.90;99446.91;5297247;27;20055;-79
2021/08/08 00:21:29;;;;;;;2.43;1.10;;;;;;;18.51;91.81;99450.91;5300425;27;20065;-78
2021/08/08 00:23:59;;;;;;;2.85;1.10;;;;;;;18.36;92.65;99454.03;5296104;27;20688;-79
2021/08/08 00:26:30;;;;;;;2.65;0.90;;;;;;;18.29;93.04;99458.13;5301831;27;20028;-79
2021/08/08 00:29:00;;;;;;;2.90;0.98;;;;;;;18.33;92.52;99449.00;5301922;27;20028;-79
2021/08/08 00:31:30;;;;;;;2.70;1.02;;;;;;;18.29;92.36;99456.34;5288040;27;20027;-79
2021/08/08 00:34:01;;;;;;;3.53;0.90;;;;;;;18.34;91.57;99453.31;5303167;27;20197;-79
2021/08/08 00:36:34;;;;;;;2.00;0.80;;;;;;;18.27;91.35;99452.09;5298328;27;20393;-79
2021/08/08 00:39:04;;;;;;;2.80;1.00;;;;;;;18.20;91.39;99456.25;5300960;27;20138;-79
2021/08/08 00:41:35;;;;;;;2.72;0.80;;;;;;;18.28;89.93;99459.97;5300240;27;20449;-78
2021/08/08 00:44:05;;;;;;;2.03;0.80;;;;;;;18.31;90.07;99464.16;5302745;27;20184;-79
2021/08/08 00:46:35;;;;;;;2.95;1.10;;;;;;;18.23;90.41;99456.00;5303107;27;20061;-79
2021/08/08 00:49:06;;;;;;;1.67;0.65;;;;;;;18.15;91.26;99458.47;5293853;27;20019;-79
2021/08/08 00:51:38;;;;;;;1.25;0.85;;;;;;;18.08;91.41;99465.22;5301583;27;20352;-79
2021/08/08 00:54:08;;;;;;;2.67;0.93;;;;;;;17.96;91.64;99471.50;5300106;27;20393;-79
2021/08/08 00:56:38;;;;;;;4.93;0.88;;;;;;;17.98;91.19;99462.50;5291614;28;20068;-79
2021/08/08 00:59:09;;;;;;;1.42;0.82;;;;;;;18.07;90.65;99461.75;5302883;27;20035;-79
2021/08/08 01:01:41;;;;;;;2.22;1.00;;;;;;;18.01;90.86;99464.06;5298937;27;20028;-79
2021/08/08 01:04:17;;;;;;;1.90;1.05;;;;;;;18.04;90.77;99472.56;5304381;27;20031;-79
2021/08/08 01:06:51;;;;;;;;;;;;;;;18.08;89.66;99489.00;5295893;27;20035;-79
2021/08/08 01:09:24;;;;;;;1.42;0.82;;;;;;;17.97;89.78;99478.50;5301034;27;19915;-79
2021/08/08 01:11:57;;;;;;;1.55;0.70;;;;;;;17.98;88.78;99472.25;5299901;27;20050;-79
2021/08/08 01:14:30;;;;;;;1.67;0.75;;;;;;;17.99;88.01;99480.03;5302793;27;20030;-79
2021/08/08 01:17:04;;;;;;;3.75;0.70;;;;;;;17.98;88.48;99472.25;5304381;27;20509;-79
2021/08/08 01:19:40;;;;;;;2.90;0.70;;;;;;;17.86;88.46;99484.66;5303324;27;20067;-79
2021/08/08 01:22:10;;;;;;;2.85;0.80;;;;;;;17.85;88.79;99487.44;5302131;27;20419;-79
2021/08/08 01:24:41;;;;;;;1.00;0.60;;;;;;;17.84;87.91;99485.75;5294282;27;20027;-79
2021/08/08 01:27:12;;;;;;;1.88;0.70;;;;;;;17.69;88.54;99490.47;5290221;28;20447;-79
2021/08/08 01:29:42;;;;;;;3.10;0.77;;;;;;;17.76;88.11;99488.19;5302627;27;20068;-79
2021/08/08 01:32:13;;;;;;;2.83;0.88;;;;;;;17.68;88.11;99490.63;5300467;27;20023;-79
2021/08/08 01:34:43;;;;;;;1.98;0.70;;;;;;;17.60;87.68;99498.31;5303228;27;20035;-79
2021/08/08 01:37:18;;;;;;;3.83;0.60;;;;;;;17.76;86.20;99498.75;5300261;27;20046;-79
2021/08/08 01:40:00;;;;;;;1.02;0.55;;;;;;;17.63;86.74;99504.22;5294745;27;20292;-79
2021/08/08 01:42:31;;;;;;;1.38;0.70;;;;;;;17.63;85.94;99503.38;5304633;27;20110;-79
2021/08/08 01:45:03;;;;;;;2.75;0.60;;;;;;;17.73;85.31;99501.66;5303008;27;20035;-79
2021/08/08 01:47:38;;;;;;;0.80;0.43;;;;;;;17.61;86.19;99506.13;5296019;27;20052;-79
2021/08/08 01:50:09;;;;;;;2.72;0.60;;;;;;;17.43;87.06;99512.91;5297737;27;20569;-79
2021/08/08 01:52:40;;;;;;;1.70;0.47;;;;;;;17.39;87.06;99524.69;5298408;27;20031;-78
2021/08/08 01:55:11;;;;;;;1.15;0.40;;;;;;;17.46;86.51;99520.59;5293621;27;20323;-78
2021/08/08 01:57:42;;;;;;;1.92;0.60;;;;;;;17.35;87.09;99520.59;5297240;27;20095;-79
2021/08/08 02:00:13;;;;;;;0.82;0.40;;;;;;;17.45;86.51;99532.13;5297346;27;20118;-79
2021/08/08 02:02:58;;;;;;;1.58;0.50;;;;;;;17.33;86.32;99532.22;5305803;27;20023;-78
2021/08/08 02:05:30;;;;;;;1.65;0.50;;;;;;;17.31;87.05;99540.25;5299085;27;20023;-78
2021/08/08 02:08:00;;;;;;;2.65;0.50;;;;;;;17.26;87.86;99542.44;5297304;27;20323;-79
2021/08/08 02:10:31;;;;;;;2.20;0.40;;;;;;;17.15;87.82;99541.59;5299850;27;20516;-78
2021/08/08 02:13:01;;;;;;;1.40;0.47;;;;;;;17.16;87.87;99545.94;5301369;27;20042;-79
2021/08/08 02:15:32;;;;;;;2.58;0.50;;;;;;;17.13;88.11;99554.09;5295827;27;20031;-78
2021/08/08 02:18:02;;;;;;;1.00;0.50;;;;;;;17.11;88.37;99554.19;5289094;27;20217;-79
2021/08/08 02:20:32;;;;;;;1.95;0.60;;;;;;;17.12;88.12;99555.06;5295998;27;20289;-78
2021/08/08 02:23:03;;;;;;;2.72;0.52;;;;;;;17.10;88.66;99551.66;5297535;27;20118;-79
2021/08/08 02:25:33;;;;;;;1.88;0.60;;;;;;;17.05;89.18;99559.13;5293968;27;20034;-78
2021/08/08 02:28:07;;;;;;;1.85;0.63;;;;;;;17.01;88.77;99553.22;5295823;27;20023;-79
2021/08/08 02:30:37;;;;;;;2.78;0.60;;;;;;;16.89;90.00;99561.25;5297544;27;20287;-79
2021/08/08 02:33:08;;;;;;;2.88;0.75;;;;;;;17.00;88.83;99559.47;5298477;27;20019;-79
2021/08/08 02:35:38;;;;;;;0.77;0.43;;;;;;;16.88;89.83;99562.22;5302093;27;20053;-79
2021/08/08 02:38:08;;;;;;;3.15;0.50;;;;;;;16.62;91.67;99566.03;5296583;27;20467;-79
2021/08/08 02:40:39;;;;;;;2.53;0.47;;;;;;;16.68;91.62;99570.84;5297717;27;20330;-79
2021/08/08 02:43:09;;;;;;;1.20;0.40;;;;;;;16.73;91.45;99562.56;5302002;27;20126;-79
2021/08/08 02:45:39;;;;;;;1.70;0.47;;;;;;;16.72;90.56;99560.91;5294981;27;20043;-79
2021/08/08 02:48:09;;;;;;;1.90;0.50;;;;;;;16.74;90.78;99573.00;5294590;27;20374;-79
2021/08/08 02:50:40;;;;;;;1.98;0.45;;;;;;;16.63;91.53;99570.34;5301368;27;20073;-79
2021/08/08 02:53:10;;;;;;;1.77;0.60;;;;;;;16.61;91.85;99572.28;5297840;27;20030;-79
2021/08/08 02:55:41;;;;;;;2.15;0.57;;;;;;;16.63;92.22;99573.00;5297666;27;20035;-79
2021/08/08 02:58:11;;;;;;;3.03;0.63;;;;;;;16.66;91.62;99583.31;5296897;27;20685;-79
2021/08/08 03:00:41;;;;;;;3.03;0.60;;;;;;;16.66;92.04;99577.19;5297341;27;20116;-79
2021/08/08 03:03:12;;;;;;;3.60;0.68;;;;;;;16.63;92.33;99586.19;5297701;27;20130;-78
2021/08/08 03:05:42;;;;;;;1.63;0.60;;;;;;;16.58;93.08;99593.59;5305964;27;20076;-79
2021/08/08 03:08:12;;;;;;;3.05;0.70;;;;;;;16.65;92.24;99592.19;5298799;27;20034;-79
2021/08/08 03:10:43;;;;;;;1.55;0.60;;;;;;;16.70;92.08;99595.31;5299350;27;20062;-79
2021/08/08 03:13:13;;;;;;;1.65;0.60;;;;;;;16.53;92.45;99598.38;5298977;27;20019;-79
2021/08/08 03:15:44;;;;;;;1.08;0.50;;;;;;;16.53;93.17;99600.19;5297391;27;20023;-79
2021/08/08 03:18:14;;;;;;;1.75;0.50;;;;;;;16.58;92.65;99598.84;5289061;28;20027;-78
2021/08/08 03:20:44;;;;;;;2.28;0.80;;;;;;;16.58;93.06;99604.13;5300100;27;20385;-79
2021/08/08 03:23:17;;;;;;;1.40;0.50;;;;;;;16.63;92.58;99609.06;5296908;27;20033;-79
2021/08/08 03:25:47;;;;;;;1.05;0.43;;;;;;;16.52;93.22;99630.97;5292670;28;20027;-79
2021/08/08 03:28:18;;;;;;;2.03;0.60;;;;;;;16.51;93.35;99617.91;5295662;27;20471;-79
2021/08/08 03:30:48;;;;;;;3.28;0.57;;;;;;;16.62;93.41;99625.88;5300221;27;20078;-79
2021/08/08 03:33:18;;;;;;;3.13;0.70;;;;;;;16.65;92.98;99629.13;5302107;28;20047;-79
2021/08/08 03:35:49;;;;;;;1.90;0.57;;;;;;;16.71;93.25;99627.81;5297208;27;20023;-78
2021/08/08 03:38:19;;;;;;;1.63;0.65;;;;;;;16.61;92.82;99632.94;5295896;28;20023;-78
2021/08/08 03:40:50;;;;;;;2.65;0.52;;;;;;;16.53;93.44;99639.75;5295877;28;20027;-78
2021/08/08 03:43:20;;;;;;;3.80;0.70;;;;;;;16.46;93.81;99647.28;5298727;28;20030;-79
2021/08/08 03:45:50;;;;;;;2.13;0.50;;;;;;;16.47;94.86;99654.25;5297542;28;20028;-79
2021/08/08 03:48:21;;;;;;;2.08;0.57;;;;;;;16.50;93.69;99661.91;5290222;28;20172;-79
2021/08/08 03:50:51;;;;;;;2.85;0.60;;;;;;;16.49;94.56;99660.25;5298183;28;20544;-79
2021/08/08 03:53:21;;;;;;;2.35;0.50;;;;;;;16.53;94.49;99660.88;5304154;27;20300;-80
2021/08/08 03:55:52;;;;;;;4.22;0.70;;;;;;;16.48;95.24;99662.97;5297036;27;20478;-79
2021/08/08 03:58:23;;;;;;;2.42;0.60;;;;;;;16.58;94.90;99675.38;5300514;27;20023;-79
2021/08/08 04:00:53;;;;;;;1.45;0.50;;;;;;;16.51;95.38;99668.88;5301343;27;20049;-78
2021/08/08 04:03:24;;;;;;;1.73;0.45;;;;;;;16.61;95.24;99674.31;5302603;27;20023;-79
2021/08/08 04:05:54;;;;;;;2.00;0.55;;;;;;;16.70;94.31;99666.53;5301912;27;20062;-79
2021/08/08 04:08:25;;;;;;;2.63;0.70;;;;;;;16.70;95.17;99669.19;5303967;27;20023;-79
2021/08/08 04:10:55;;;;;;;1.27;0.50;;;;;;;16.78;94.28;99672.09;5302882;27;20023;-79
2021/08/08 04:13:25;;;;;;;2.03;0.70;;;;;;;16.90;93.71;99673.81;5302416;27;20483;-79
2021/08/08 04:15:56;;;;;;;1.48;0.50;;;;;;;16.99;93.65;99662.56;5298847;27;20027;-78
2021/08/08 04:18:26;;;;;;;2.28;0.55;;;;;;;16.88;94.38;99673.09;5302263;27;20072;-78
2021/08/08 04:20:56;;;;;;;2.22;0.57;;;;;;;16.92;94.87;99670.09;5301687;27;20035;-79
2021/08/08 04:23:27;;;;;;;2.15;0.60;;;;;;;16.95;93.49;99675.16;5303481;27;20046;-78
2021/08/08 04:25:57;;;;;;;1.50;0.52;;;;;;;17.09;93.85;99663.53;5293583;27;20039;-78
2021/08/08 04:28:28;;;;;;;1.05;0.47;;;;;;;17.18;92.40;99668.13;5295284;27;20091;-78
2021/08/08 04:30:58;;;;;;;3.38;0.52;;;;;;;17.19;93.29;99675.06;5302443;27;20026;-78
2021/08/08 04:33:28;;;;;;;1.77;0.50;;;;;;;17.39;92.31;99677.06;5299048;27;20310;-78
2021/08/08 04:35:59;;;;;;;3.47;0.70;;;;;;;17.41;92.69;99677.75;5300180;27;20111;-78
2021/08/08 04:38:29;;;;;;;3.03;0.60;;;;;;;17.44;92.39;99677.53;5302060;27;20275;-78
2021/08/08 04:41:00;;;;;;;2.83;0.50;;;;;;;17.54;91.71;99689.06;5299862;27;20425;-78
2021/08/08 04:43:31;;;;;;;3.17;0.70;;;;;;;17.57;91.79;99683.53;5303306;27;20110;-78
2021/08/08 04:46:01;;;;;;;2.33;0.52;;;;;;;17.64;90.91;99679.47;5300964;27;20038;-78
2021/08/08 04:48:31;;;;;;;2.85;0.70;;;;;;;17.76;90.70;99689.91;5291666;27;20066;-78
2021/08/08 04:51:02;;;;;;;2.72;0.60;;;;;;;17.75;91.11;99695.31;5301777;27;20524;-78
2021/08/08 04:53:32;;;;;;;3.80;0.50;;;;;;;18.59;88.75;99683.16;5302265;27;20031;-79
2021/08/08 04:56:03;;;;;;;3.77;0.60;;;;;;;19.02;85.41;99698.00;5291785;27;20020;-79
2021/08/08 04:58:33;;;;;;;2.70;0.60;;;;;;;18.65;86.67;99691.44;5300535;27;20699;-78
2021/08/08 05:01:03;;;;;;;1.93;0.77;;;;;;;19.07;86.58;99694.00;5299278;27;20034;-79
2021/08/08 05:03:34;;;;;;;1.20;0.53;;;;;;;19.08;84.42;99695.66;5306907;27;20341;-79
2021/08/08 05:06:07;;;;;;;1.80;0.57;;;;;;;19.10;84.74;99700.84;5299557;27;20277;-78
2021/08/08 05:08:37;;;;;;;6.80;0.70;;;;;;;18.58;87.79;99689.41;5299708;27;20105;-79
2021/08/08 05:11:08;;;;;;;3.10;0.50;;;;;;;18.72;86.55;99692.59;5299273;27;20071;-79
2021/08/08 05:13:38;;;;;;;2.33;0.60;;;;;;;18.88;86.93;99683.25;5302449;27;20112;-79
2021/08/08 05:16:08;;;;;;;1.60;0.60;;;;;;;19.31;85.40;99683.16;5300102;27;20030;-78
2021/08/08 05:18:38;;;;;;;2.27;0.60;;;;;;;21.44;78.70;99675.16;5299972;27;20269;-79
2021/08/08 05:21:09;;;;;;;2.95;0.50;;;;;;;22.59;72.71;99668.28;5303500;27;20292;-79
2021/08/08 05:23:39;;;;;;;1.45;0.70;;;;;;;23.60;68.69;99673.78;5300273;27;20035;-79
2021/08/08 05:26:09;;;;;;;2.28;0.70;;;;;;;22.10;72.69;99666.88;5292087;27;20053;-79
2021/08/08 05:28:42;;;;;;;1.77;0.57;;;;;;;21.21;75.51;99682.63;5300350;27;20026;-78
2021/08/08 05:31:12;;;;;;;1.80;0.70;;;;;;;20.50;77.98;99681.38;5299994;27;20102;-78
2021/08/08 05:33:42;;;;;;;2.50;0.68;;;;;;;19.42;81.67;99686.56;5299382;27;20122;-77
2021/08/08 05:36:13;;;;;;;1.47;0.60;;;;;;;19.33;82.46;99689.16;5297928;27;20542;-77
2021/08/08 05:38:43;;;;;;;4.03;0.60;;;;;;;19.30;83.23;99684.97;5299204;27;20360;-77
2021/08/08 05:41:13;;;;;;;2.97;0.70;;;;;;;18.98;84.04;99689.50;5297495;27;20289;-78
2021/08/08 05:43:43;;;;;;;3.80;0.60;;;;;;;18.98;83.98;99694.78;5299641;27;20279;-77
2021/08/08 05:46:14;;;;;;;3.03;0.70;;;;;;;18.54;84.55;99693.28;5294583;27;20020;-77
2021/08/08 05:48:44;;;;;;;1.58;0.60;;;;;;;18.59;85.20;99691.09;5291189;27;20276;-77
2021/08/08 05:51:14;;;;;;;2.67;0.70;;;;;;;18.90;84.95;99691.91;5298526;27;20460;-78
2021/08/08 05:53:45;;;;;;;3.35;0.70;;;;;;;18.84;83.77;99691.59;5296472;27;20038;-77
2021/08/08 05:56:15;;;;;;;2.30;0.70;;;;;;;18.67;84.75;99697.44;5288724;27;20268;-77
2021/08/08 05:58:45;;;;;;;2.53;0.80;;;;;;;18.86;84.04;99695.78;5296825;27;20481;-77
2021/08/08 06:01:15;;;;;;;1.92;0.70;;;;;;;19.07;83.75;99701.94;5295113;27;20288;-77
2021/08/08 06:03:46;;;;;;;3.70;0.93;;;;;;;19.19;82.63;99698.31;5299069;27;20392;-77
2021/08/08 06:06:16;;;;;;;3.60;0.70;;;;;;;19.05;82.93;99706.53;5297130;27;20368;-77
2021/08/08 06:08:47;;;;;;;3.17;1.00;;;;;;;19.08;83.24;99711.56;5298832;27;20564;-78
2021/08/08 06:11:17;;;;;;;7.47;2.90;;;;;;;19.19;82.87;99713.34;5298722;27;20027;-78
2021/08/08 06:13:47;;;;;;;5.25;1.92;;;;;;;19.11;83.67;99719.25;5298269;27;20310;-78
2021/08/08 06:16:18;;;;;;;4.20;1.92;;;;;;;18.98;84.57;99728.34;5293499;27;20046;-78
2021/08/08 06:18:49;;;;;;;3.88;1.60;;;;;;;19.09;83.53;99723.00;5290232;27;20099;-77
2021/08/08 06:21:19;;;;;;;3.17;1.10;;;;;;;19.02;83.44;99735.94;5297505;27;20019;-77
2021/08/08 06:23:49;;;;;;;2.30;0.80;;;;;;;19.23;82.33;99735.94;5296545;27;20027;-77
2021/08/08 06:26:19;;;;;;;2.63;0.90;;;;;;;19.37;82.64;99741.78;5289238;27;20042;-78
2021/08/08 06:28:50;;;;;;;4.10;0.80;;;;;;;19.22;82.52;99745.72;5296307;27;20354;-77
2021/08/08 06:31:20;;;;;;;1.95;0.80;;;;;;;19.37;82.85;99739.13;5298016;27;20493;-77
2021/08/08 06:33:50;;;;;;;2.95;0.90;;;;;;;19.30;82.22;99753.84;5296263;27;20030;-78
2021/08/08 06:36:21;;;;;;;2.37;0.90;;;;;;;19.38;81.84;99756.72;5297051;27;20026;-78
2021/08/08 06:38:52;;;;;;;2.97;1.00;;;;;;;19.12;82.95;99765.13;5296837;27;20304;-77
2021/08/08 06:41:22;;;;;;;2.17;0.80;;;;;;;18.92;82.66;99768.59;5295210;27;20536;-77
2021/08/08 06:43:52;;;;;;;5.88;1.00;;;;;;;18.93;82.45;99771.09;5295809;27;20292;-77
2021/08/08 06:46:23;;;;;;;4.63;1.00;;;;;;;18.90;83.23;99784.59;5286908;27;20107;-77
2021/08/08 06:48:53;;;;;;;4.10;1.08;;;;;;;19.01;83.25;99784.56;5293689;27;20059;-77
2021/08/08 06:51:23;;;;;;;3.65;1.00;;;;;;;18.89;82.58;99782.06;5293604;27;20016;-77
2021/08/08 06:53:53;;;;;;;4.13;1.00;;;;;;;18.89;82.77;99793.53;5293784;27;20063;-77
2021/08/08 06:56:24;;;;;;;1.95;0.85;;;;;;;19.01;82.05;99784.56;5285888;27;20685;-77
2021/08/08 06:58:54;;;;;;;4.70;1.37;;;;;;;19.10;81.26;99780.31;5294992;27;20110;-77
2021/08/08 07:01:24;;;;;;;1.87;0.73;;;;;;;19.15;81.80;99780.78;5297807;27;20292;-77
2021/08/08 07:03:54;;;;;;;6.28;0.98;;;;;;;19.47;80.64;99793.03;5286850;27;20303;-78
2021/08/08 07:06:25;;;;;;;1.95;0.82;;;;;;;19.58;79.60;99789.50;5283689;27;20031;-79
2021/08/08 07:08:55;;;;;;;7.22;1.20;;;;;;;20.17;76.54;99799.34;5288196;27;20448;-78
2021/08/08 07:11:26;;;;;;;4.40;1.10;;;;;;;21.86;70.58;99791.69;5287720;27;20026;-78
2021/08/08 07:13:56;;;;;;;3.00;0.90;;;;;;;22.78;67.26;99792.38;5289787;27;20024;-79
2021/08/08 07:16:27;;;;;;;3.40;0.80;;;;;;;23.94;64.50;99794.78;5293778;27;20469;-79
2021/08/08 07:18:57;;;;;;;3.23;0.93;;;;;;;24.10;63.77;99794.03;5284651;27;20269;-80
2021/08/08 07:21:27;;;;;;;3.38;0.90;;;;;;;25.10;61.30;99791.22;5285366;27;20530;-79
2021/08/08 07:23:58;;;;;;;2.90;1.00;;;;;;;25.41;62.26;99798.50;5287147;28;20122;-79
2021/08/08 07:26:28;;;;;;;7.88;1.00;;;;;;;27.92;54.66;99786.28;5299309;27;20034;-80
2021/08/08 07:28:58;;;;;;;4.85;1.00;;;;;;;29.20;53.13;99789.03;5296017;27;20073;-80
2021/08/08 07:31:29;;;;;;;2.13;0.83;;;;;;;29.08;52.20;99798.63;5296741;27;20023;-80
2021/08/08 07:33:59;;;;;;;2.75;0.77;;;;;;;27.84;54.31;99806.00;5300720;27;20302;-81
2021/08/08 07:36:30;;;;;;;3.90;1.30;;;;;;;26.18;56.40;99819.34;5297183;28;20027;-80
2021/08/08 07:39:00;;;;;;;7.03;1.45;;;;;;;27.45;55.58;99809.84;5288156;28;20019;-80
2021/08/08 07:41:31;;;;;;;6.97;1.40;;;;;;;25.58;57.99;99812.69;5290714;28;20451;-80
2021/08/08 07:44:01;;;;;;;3.55;1.20;;;;;;;25.52;58.86;99819.53;5296892;28;20289;-79
2021/08/08 07:46:31;;;;;;;4.83;1.30;;;;;;;26.04;57.99;99812.00;5294006;27;20110;-80
2021/08/08 07:49:02;;;;;;;2.83;1.10;;;;;;;25.38;59.64;99822.91;5297974;27;20032;-80
2021/08/08 07:51:32;;;;;;;5.18;1.10;;;;;;;25.64;59.51;99828.09;5290960;28;20032;-80
2021/08/08 07:54:02;;;;;;;3.43;1.13;;;;;;;26.95;56.26;99817.53;5291464;28;20031;-80
2021/08/08 07:56:33;;;;;;;5.70;0.98;;;;;;;27.57;56.68;99824.50;5289116;28;20281;-80
2021/08/08 07:59:03;;;;;;;3.83;1.10;;;;;;;27.93;53.82;99820.19;5296527;27;20031;-80
2021/08/08 08:01:33;;;;;;;3.53;1.13;;;;;;;27.32;54.47;99828.41;5296384;28;20122;-80
2021/08/08 08:04:04;;;;;;;4.90;1.50;;;;;;;25.30;57.06;99836.28;5293520;28;20106;-80
2021/08/08 08:06:34;;;;;;;4.25;1.40;;;;;;;25.46;57.39;99835.47;5292586;28;20273;-79
2021/08/08 08:09:04;;;;;;;4.40;1.40;;;;;;;24.76;58.28;99835.94;5295967;28;20027;-80
2021/08/08 08:11:35;;;;;;;6.53;1.50;;;;;;;25.62;57.88;99841.63;5296020;28;20273;-79
2021/08/08 08:14:05;;;;;;;4.07;1.25;;;;;;;25.33;59.12;99854.66;5293695;28;20058;-79
2021/08/08 08:16:36;;;;;;;3.77;0.90;;;;;;;25.59;56.75;99843.81;5295997;28;20030;-81
2021/08/08 08:19:06;;;;;;;6.28;1.00;;;;;;;26.10;55.70;99835.44;5287518;28;20274;-80
2021/08/08 08:21:36;;;;;;;5.00;1.17;;;;;;;26.84;54.80;99847.44;5289712;27;20031;-79
2021/08/08 08:24:07;;;;;;;4.77;1.17;;;;;;;29.22;52.04;99837.31;5289829;28;20034;-80
2021/08/08 08:26:37;;;;;;;4.97;1.20;;;;;;;27.08;53.44;99842.78;5295166;28;20042;-80
2021/08/08 08:29:07;;;;;;;2.20;0.87;;;;;;;29.16;51.48;99846.13;5296195;28;20035;-80
2021/08/08 08:31:38;;;;;;;4.90;1.57;;;;;;;27.81;51.36;99841.28;5294146;28;20319;-80
2021/08/08 08:34:08;;;;;;;3.83;0.88;;;;;;;27.55;51.56;99848.00;5293887;28;20031;-80
2021/08/08 08:36:38;;;;;;;3.55;1.00;;;;;;;27.81;51.56;99849.34;5295576;28;20573;-80
2021/08/08 08:39:09;;;;;;;4.57;1.20;;;;;;;27.07;52.35;99848.34;5299049;27;20054;-80
2021/08/08 08:41:40;;;;;;;3.77;1.10;;;;;;;27.95;51.92;99850.41;5299822;27;20283;-80
2021/08/08 08:44:10;;;;;;;4.03;1.15;;;;;;;27.93;52.64;99855.13;5300497;27;20031;-80
2021/08/08 08:46:41;;;;;;;7.40;1.27;;;;;;;27.56;52.68;99855.91;5292188;27;20389;-80
2021/08/08 08:49:17;;;;;;;4.75;1.15;;;;;;;29.64;50.13;99848.97;5296218;27;20301;-80
2021/08/08 08:51:55;;;;;;;3.53;1.10;;;;;;;30.57;48.22;99844.88;5296317;27;20038;-80
2021/08/08 08:54:28;;;;;;;6.88;1.20;;;;;;;27.81;52.63;99861.94;5295934;27;20508;-80
2021/08/08 08:56:59;;;;;;;3.08;1.00;;;;;;;26.16;55.39;99872.28;5292983;27;20075;-80
2021/08/08 08:59:30;;;;;;;5.80;1.20;;;;;;;24.62;58.70;99879.34;5302348;27;20027;-79
2021/08/08 09:02:00;;;;;;;6.25;1.20;;;;;;;24.58;58.62;99875.28;5298848;27;20031;-79
2021/08/08 09:04:31;;;;;;;3.50;1.20;;;;;;;23.67;60.61;99882.97;5303222;27;20392;-78
2021/08/08 09:07:02;;;;;;;7.33;1.20;;;;;;;23.05;62.48;99890.97;5295891;27;20059;-79
2021/08/08 09:09:34;;;;;;;4.57;1.30;;;;;;;22.82;62.54;99904.88;5292958;27;20628;-78
2021/08/08 09:12:05;;;;;;;4.63;1.40;;;;;;;22.48;63.51;99909.09;5294246;27;20038;-79
2021/08/08 09:14:36;;;;;;;5.60;1.10;;;;;;;22.46;63.87;99907.53;5293570;27;20018;-79
2021/08/08 09:17:08;;;;;;;4.13;1.10;;;;;;;22.02;63.93;99905.50;5289960;27;20600;-78
2021/08/08 09:19:38;;;;;;;5.95;1.50;;;;;;;22.17;64.09;99912.91;5297357;27;20489;-79
2021/08/08 09:22:20;;;;;;;2.80;0.97;;;;;;;22.41;63.49;99915.13;5297199;27;20504;-79
2021/08/08 09:24:50;;;;;;;4.95;1.13;;;;;;;22.57;62.37;99910.84;5290943;27;20273;-78
2021/08/08 09:27:30;;;;;;;5.55;1.20;;;;;;;22.33;64.19;99922.97;5280092;27;20024;-78
2021/08/08 09:30:15;;;;;;;6.45;1.60;;;;;;;22.50;63.33;99914.25;5285432;27;20031;-78
2021/08/08 09:32:46;;;;;;;4.67;1.17;;;;;;;22.43;62.77;99911.31;5285619;27;20485;-78
2021/08/08 09:35:19;;;;;;;4.28;1.30;;;;;;;22.53;64.26;99908.63;5286689;27;20308;-77
2021/08/08 09:37:58;;;;;;;4.45;1.15;;;;;;;22.85;62.99;99920.56;5285736;27;20032;-78
2021/08/08 09:40:28;;;;;;;3.53;1.17;;;;;;;23.25;61.61;99921.91;5289606;27;20082;-78
2021/08/08 09:42:59;;;;;;;7.38;1.50;;;;;;;23.51;60.81;99916.69;5291631;27;20532;-78
2021/08/08 09:45:44;;;;;;;6.32;1.30;;;;;;;23.43;61.26;99922.78;5288864;27;20489;-78
2021/08/08 09:48:14;;;;;;;4.57;1.30;;;;;;;23.41;61.62;99929.22;5282569;27;20024;-78
2021/08/08 09:50:46;;;;;;;5.32;1.40;;;;;;;23.20;62.21;99931.34;5287061;27;20274;-78
2021/08/08 09:53:20;;;;;;;3.63;1.00;;;;;;;22.88;61.67;99926.41;5291572;27;20064;-78
2021/08/08 09:55:51;;;;;;;6.05;1.10;;;;;;;22.28;62.40;99942.03;5292490;27;20031;-78
2021/08/08 09:58:24;;;;;;;7.47;1.30;;;;;;;21.77;63.42;99940.69;5284140;27;20024;-79
2021/08/08 10:00:59;;;;;;;4.95;1.17;;;;;;;21.91;63.29;99953.59;5281591;27;20019;-79
2021/08/08 10:03:29;;;;;;;3.42;1.00;;;;;;;22.14;65.18;99942.50;5280367;27;20085;-79
2021/08/08 10:06:00;;;;;;;5.65;1.40;;;;;;;22.30;63.06;99957.88;5293927;27;20031;-78
2021/08/08 10:08:31;;;;;;;6.30;1.02;;;;;;;22.28;62.72;99955.34;5297089;27;20027;-78
2021/08/08 10:11:02;;;;;;;4.60;1.50;;;;;;;22.50;63.24;99960.38;5293581;27;20027;-78
2021/08/08 10:13:52;;;;;;;3.45;1.27;;;;;;;22.62;64.90;99961.88;5297788;27;20031;-79
2021/08/08 10:16:22;;;;;;;4.35;1.17;;;;;;;22.48;64.67;99969.50;5288494;27;20134;-78
2021/08/08 10:18:55;;;;;;;4.25;1.33;;;;;;;22.56;63.99;99967.78;5284171;27;20107;-78
2021/08/08 10:21:26;;;;;;;3.80;1.30;;;;;;;22.54;64.97;99963.56;5283230;28;20076;-78
2021/08/08 10:24:08;;;;;;;5.35;1.40;;;;;;;22.61;65.13;99970.03;5287212;27;20035;-78
2021/08/08 10:26:38;;;;;;;4.95;1.60;;;;;;;22.36;64.54;99970.59;5288079;27;20058;-78
2021/08/08 10:29:09;;;;;;;4.67;1.53;;;;;;;22.45;65.16;99969.78;5292726;27;20452;-78
2021/08/08 10:31:39;;;;;;;7.70;1.60;;;;;;;22.24;66.28;99964.59;5284996;27;20302;-78
2021/08/08 10:34:09;;;;;;;6.28;1.50;;;;;;;22.25;65.74;99968.13;5293579;27;20037;-77
2021/08/08 10:36:40;;;;;;;7.45;1.60;;;;;;;22.21;64.57;99966.69;5293228;27;20478;-78
2021/08/08 10:39:14;;;;;;;4.78;1.35;;;;;;;21.83;65.41;99975.56;5293455;27;20118;-78
2021/08/08 10:41:58;;;;;;;4.97;1.30;;;;;;;21.98;66.16;99978.63;5295608;27;20038;-78
2021/08/08 10:44:28;;;;;;;5.75;1.40;;;;;;;22.43;65.60;99982.41;5295597;27;20031;-78
2021/08/08 10:46:58;;;;;;;5.97;1.50;;;;;;;22.60;64.50;99981.66;5287346;27;20027;-78
2021/08/08 10:49:33;;;;;;;5.80;1.27;;;;;;;22.96;63.69;99973.66;5287488;27;20313;-78
2021/08/08 10:52:08;;;;;;;4.03;1.10;;;;;;;23.18;64.21;99973.31;5296755;27;20025;-78
2021/08/08 10:54:49;;;;;;;4.15;1.38;;;;;;;23.09;63.04;99975.03;5287052;27;20281;-78
2021/08/08 10:57:20;;;;;;;4.80;1.17;;;;;;;22.94;63.40;99971.16;5291419;27;20062;-78
2021/08/08 10:59:52;;;;;;;5.13;1.17;;;;;;;23.01;63.73;99979.41;5292447;27;20032;-78
2021/08/08 11:02:27;;;;;;;4.72;1.10;;;;;;;22.65;64.29;99982.06;5292018;27;20058;-78
2021/08/08 11:04:57;;;;;;;3.83;1.17;;;;;;;22.56;63.09;99986.44;5288074;27;20035;-78
2021/08/08 11:07:29;;;;;;;2.83;1.05;;;;;;;22.16;62.63;99984.94;5287246;27;20084;-78
2021/08/08 11:09:59;;;;;;;4.90;1.10;;;;;;;22.34;61.20;99978.75;5287045;27;20019;-78
2021/08/08 11:12:41;;;;;;;3.15;0.75;;;;;;;22.25;61.90;99978.78;5291454;27;20027;-79
2021/08/08 11:15:12;;;;;;;2.03;0.90;;;;;;;22.09;62.09;99982.00;5288579;27;20066;-79
2021/08/08 11:17:42;;;;;;;2.90;0.90;;;;;;;22.13;62.04;99990.53;5285972;27;20454;-78
2021/08/08 11:20:14;;;;;;;3.83;0.80;;;;;;;22.57;61.11;99980.13;5291374;27;20039;-78
2021/08/08 11:22:48;;;;;;;4.20;1.00;;;;;;;23.05;63.59;99981.63;5294147;27;20119;-78
2021/08/08 11:25:20;;;;;;;4.50;1.20;;;;;;;23.33;61.19;99974.50;5289494;27;20037;-78
2021/08/08 11:27:54;;;;;;;3.65;1.10;;;;;;;23.01;61.72;99977.56;5289621;27;20458;-78
2021/08/08 11:30:25;;;;;;;3.80;0.90;;;;;;;22.91;61.20;99978.59;5286647;22;20136;-81
2021/08/08 11:32:55;;;;;;;2.75;0.88;;;;;;;22.41;61.12;99987.03;5221811;28;20116;-79
2021/08/08 11:35:27;;;;;;;3.60;0.90;;;;;;;22.37;62.79;99989.13;5228876;28;20025;-78
2021/08/08 11:37:57;;;;;;;4.57;0.90;;;;;;;22.00;62.98;99989.97;5230824;28;20082;-80
2021/08/08 11:40:30;;;;;;;3.90;1.25;;;;;;;22.25;62.35;99995.56;5229197;28;20036;-78
2021/08/08 11:43:03;;;;;;;2.83;0.93;;;;;;;22.48;63.31;99996.13;5231127;28;20784;-79
2021/08/08 11:45:36;;;;;;;4.10;1.10;;;;;;;22.72;63.04;100000.00;5228836;28;20029;-81
2021/08/08 11:48:08;;;;;;;4.18;1.15;;;;;;;22.80;62.27;99998.28;5227479;28;20028;-81
2021/08/08 11:50:39;;;;;;;3.85;1.13;;;;;;;23.27;59.55;99993.75;5232894;28;20033;-81
2021/08/08 11:53:10;;;;;;;4.90;1.17;;;;;;;23.35;58.15;100002.69;5228736;28;20528;-81